MGPB

Details ICAO MGPB (PBR)
Name PUERTO BARRIOS
Region Guatemala
Timezone America/Guatemala (UTC-6.0)
Plans Departing 8
Arriving 16
Stats Elevation 33 ft / 10 m (AMSL)
Location 15.730872° -88.583765°
Runways 1
Magnetic Variation 0.206° W
Sunrise 2018-05-25 11:24:12 UTC / 2018-05-25 05:24:12 Local
Sunset 2018-05-26 00:21:16 UTC / 2018-05-25 18:21:16 Local
Advertisement - Login to hide

Runways

ID Width Length Bearing (true) Bearing (mag) Surface Threshold Offset Overrun Length
12 110 ft / 34 m 8,861 ft / 2,701 m 127.91° 128.12° Concrete 0 ft / 0 m 0 ft / 0 m
30 110 ft / 34 m 8,861 ft / 2,701 m 307.92° 308.13° Concrete 0 ft / 0 m 0 ft / 0 m

Map

Weather


0- 5 10 15 20 25 30 35+ Temperature / ° C

Clouds and Precipitation
Forecast for 2018-05-25 12:00 UTC. Updated 4 hours ago

Ground ~20,000 ft ~40,000 ft Winds

METAR

MGPB 251400Z 00000KT 9999 FEW017 BKN070 26/25 Q1012 A2988 PCPN DIST E

TAF

MGPB 250500Z 2506/2606 00000KT 9999 FEW016 TX33/2520Z TN24/2512Z TEMPO 2506/2510 VCTSRA SCT016 FEW025CB BECMG 2515/2517 32008KT FEW018 TEMPO 2520/2524 36010KT SCT020TCU BECGM 2601/2603 00000KT SCT016

Frequencies

Tower 118.40 MHz TWR
Warning: Do not use this data for real-world aviation or navigation. No guarantee of current accuracy is given.